createdAt,value
2019-02-24T00:01:10.822Z,8.10
2019-02-24T00:03:39.276Z,7.37
2019-02-24T00:06:07.671Z,7.43
2019-02-24T00:08:36.155Z,9.07
2019-02-24T00:11:04.658Z,9.10
2019-02-24T00:13:33.063Z,8.70
2019-02-24T00:16:01.540Z,9.27
2019-02-24T00:18:30.053Z,10.63
2019-02-24T00:20:58.457Z,10.70
2019-02-24T00:23:26.902Z,11.10
2019-02-24T00:25:55.433Z,11.03
2019-02-24T00:28:23.871Z,7.93
2019-02-24T00:30:52.307Z,9.80
2019-02-24T00:33:20.836Z,9.60
2019-02-24T00:35:49.240Z,11.40
2019-02-24T00:38:17.673Z,9.50
2019-02-24T00:40:46.079Z,8.33
2019-02-24T00:43:14.559Z,8.20
2019-02-24T00:45:43.351Z,7.63
2019-02-24T00:48:11.760Z,7.10
2019-02-24T00:50:40.198Z,6.57
2019-02-24T00:53:08.818Z,9.37
2019-02-24T00:55:37.226Z,9.00
2019-02-24T00:58:05.740Z,8.10
2019-02-24T01:00:34.176Z,8.87
2019-02-24T01:03:02.842Z,7.67
2019-02-24T01:05:31.326Z,10.00
2019-02-24T01:07:59.755Z,6.67
2019-02-24T01:10:28.501Z,7.20
2019-02-24T01:12:56.906Z,7.40
2019-02-24T01:15:25.412Z,7.53
2019-02-24T01:17:53.823Z,6.83
2019-02-24T01:20:22.274Z,8.07
2019-02-24T01:22:50.792Z,10.17
2019-02-24T01:25:19.270Z,7.10
2019-02-24T01:27:47.754Z,7.43
2019-02-24T01:30:16.202Z,8.50
2019-02-24T01:32:44.676Z,8.70
2019-02-24T01:35:13.090Z,8.50
2019-02-24T01:37:41.611Z,9.20
2019-02-24T01:40:10.088Z,6.67
2019-02-24T01:42:38.600Z,7.13
2019-02-24T01:45:07.878Z,8.03
2019-02-24T01:47:36.295Z,13.10
2019-02-24T01:50:07.742Z,12.97
2019-02-24T01:52:36.184Z,11.00
2019-02-24T01:55:04.650Z,10.33
2019-02-24T01:57:33.166Z,8.87
2019-02-24T02:00:01.599Z,8.80
2019-02-24T02:02:30.006Z,9.33
2019-02-24T02:04:58.605Z,8.93
2019-02-24T02:07:27.234Z,9.17
2019-02-24T02:09:55.648Z,12.90
2019-02-24T02:12:24.162Z,12.87
2019-02-24T02:14:52.672Z,13.63
2019-02-24T02:17:21.080Z,12.73
2019-02-24T02:19:51.134Z,12.67
2019-02-24T02:22:19.571Z,8.17
2019-02-24T02:24:48.450Z,9.37
2019-02-24T02:27:16.858Z,7.93
2019-02-24T02:29:45.295Z,9.87
2019-02-24T02:32:13.742Z,12.10
2019-02-24T02:34:42.145Z,12.47
2019-02-24T02:37:10.589Z,13.17
2019-02-24T02:39:39.038Z,12.57
2019-02-24T02:42:07.443Z,11.53
2019-02-24T02:44:35.859Z,10.73
2019-02-24T02:47:04.293Z,9.40
2019-02-24T02:49:32.771Z,10.63
2019-02-24T02:52:01.284Z,10.23
2019-02-24T02:54:29.722Z,10.20
2019-02-24T02:56:58.238Z,10.77
2019-02-24T02:59:27.128Z,12.90
2019-02-24T03:01:55.575Z,12.63
2019-02-24T03:04:24.050Z,9.10
2019-02-24T03:06:56.871Z,9.33
2019-02-24T03:09:25.304Z,8.50
2019-02-24T03:11:53.741Z,8.60
2019-02-24T03:14:22.226Z,7.03
2019-02-24T03:16:50.654Z,8.60
2019-02-24T03:19:19.133Z,8.63
2019-02-24T03:21:47.680Z,11.40
2019-02-24T03:24:16.124Z,11.53
2019-02-24T03:26:44.542Z,8.27
2019-02-24T03:29:12.938Z,8.87
2019-02-24T03:31:41.453Z,7.63
2019-02-24T03:34:09.856Z,5.07
2019-02-24T03:36:38.275Z,5.90
2019-02-24T03:39:06.712Z,6.47
2019-02-24T03:41:35.119Z,9.97
2019-02-24T03:44:03.681Z,10.93
2019-02-24T03:46:32.192Z,10.47
2019-02-24T03:49:02.368Z,8.30
2019-02-24T03:51:30.804Z,8.73
2019-02-24T03:53:59.375Z,8.40
2019-02-24T03:56:27.859Z,7.40
2019-02-24T03:58:56.264Z,8.40
2019-02-24T04:01:24.719Z,9.90
2019-02-24T04:03:53.130Z,11.10
2019-02-24T04:06:21.535Z,7.57
2019-02-24T04:08:49.971Z,6.57
2019-02-24T04:11:18.408Z,7.20
2019-02-24T04:13:46.815Z,7.57
2019-02-24T04:16:15.225Z,5.23
2019-02-24T04:18:43.727Z,8.63
2019-02-24T04:21:12.215Z,7.77
2019-02-24T04:23:40.624Z,7.87
2019-02-24T04:26:09.065Z,5.83
2019-02-24T04:28:37.474Z,6.10
2019-02-24T04:31:05.886Z,6.73
2019-02-24T04:33:34.318Z,6.20
2019-02-24T04:36:02.790Z,8.43
2019-02-24T04:38:31.276Z,7.73
2019-02-24T04:40:59.799Z,5.47
2019-02-24T04:43:28.238Z,6.13
2019-02-24T04:45:56.713Z,5.27
2019-02-24T04:48:25.193Z,4.77
2019-02-24T04:50:53.637Z,5.27
2019-02-24T04:53:22.179Z,4.30
2019-02-24T04:55:50.654Z,5.60
2019-02-24T04:58:19.130Z,3.77
2019-02-24T05:00:47.603Z,4.40
2019-02-24T05:03:16.009Z,4.30
2019-02-24T05:05:44.698Z,4.37
2019-02-24T05:08:13.102Z,4.17
2019-02-24T05:10:41.622Z,5.00
2019-02-24T05:13:10.058Z,4.57
2019-02-24T05:15:38.462Z,6.53
2019-02-24T05:18:06.875Z,4.63
2019-02-24T05:20:35.413Z,4.93
2019-02-24T05:23:04.194Z,3.80
2019-02-24T05:25:32.612Z,4.43
2019-02-24T05:28:01.125Z,5.83
2019-02-24T05:30:29.610Z,3.27
2019-02-24T05:32:58.010Z,4.57
2019-02-24T05:35:26.423Z,3.50
2019-02-24T05:37:54.942Z,4.53
2019-02-24T05:40:23.395Z,3.83
2019-02-24T05:42:51.801Z,4.00
2019-02-24T05:45:20.248Z,3.90
2019-02-24T05:47:48.655Z,4.50
2019-02-24T05:50:17.134Z,3.87
2019-02-24T05:52:47.394Z,4.27
2019-02-24T05:55:15.752Z,4.20
2019-02-24T05:57:44.161Z,5.47
2019-02-24T06:00:12.669Z,4.23
2019-02-24T06:02:41.087Z,6.10
2019-02-24T06:05:09.503Z,5.03
2019-02-24T06:07:38.110Z,4.97
2019-02-24T06:10:06.691Z,3.23
2019-02-24T06:12:35.174Z,4.00
2019-02-24T06:15:04.553Z,3.73
2019-02-24T06:17:33.094Z,4.50
2019-02-24T06:20:01.502Z,5.93
2019-02-24T06:22:29.938Z,5.13
2019-02-24T06:24:58.341Z,5.50
2019-02-24T06:27:26.776Z,5.20
2019-02-24T06:30:04.311Z,5.33
2019-02-24T06:32:25.311Z,4.67
2019-02-24T06:34:53.782Z,5.80
2019-02-24T06:37:22.234Z,4.73
2019-02-24T06:39:50.645Z,4.93
2019-02-24T06:42:19.232Z,5.10
2019-02-24T06:44:47.635Z,4.47
2019-02-24T06:47:16.053Z,4.83
2019-02-24T06:49:44.572Z,4.93
2019-02-24T06:52:13.051Z,4.93
2019-02-24T06:54:41.451Z,5.67
2019-02-24T06:57:10.010Z,7.23
2019-02-24T06:59:38.422Z,6.27
2019-02-24T07:02:06.838Z,5.63
2019-02-24T07:04:35.288Z,4.60
2019-02-24T07:07:03.767Z,7.10
2019-02-24T07:09:32.354Z,4.53
2019-02-24T07:12:00.791Z,5.80
2019-02-24T07:14:29.249Z,6.20
2019-02-24T07:16:57.650Z,5.97
2019-02-24T07:19:26.132Z,5.73
2019-02-24T07:21:54.586Z,6.17
2019-02-24T07:24:23.021Z,7.53
2019-02-24T07:26:51.539Z,7.40
2019-02-24T07:29:20.018Z,8.97
2019-02-24T07:31:48.461Z,5.80
2019-02-24T07:34:16.879Z,5.80
2019-02-24T07:36:45.294Z,6.40
2019-02-24T07:39:13.742Z,6.00
2019-02-24T07:41:42.155Z,6.33
2019-02-24T07:44:10.627Z,6.07
2019-02-24T07:46:39.098Z,5.47
2019-02-24T07:49:07.660Z,8.00
2019-02-24T07:51:36.137Z,6.47
2019-02-24T07:54:04.567Z,7.90
2019-02-24T07:56:33.035Z,7.37
2019-02-24T07:59:01.483Z,7.63
2019-02-24T08:01:29.963Z,6.70
2019-02-24T08:03:58.450Z,7.10
2019-02-24T08:06:26.859Z,9.27
2019-02-24T08:08:55.367Z,8.40
2019-02-24T08:11:24.004Z,7.60
2019-02-24T08:13:52.470Z,5.70
2019-02-24T08:16:20.907Z,5.93
2019-02-24T08:18:51.470Z,6.83
2019-02-24T08:21:19.519Z,6.63
2019-02-24T08:23:47.967Z,7.77
2019-02-24T08:26:16.377Z,7.27
2019-02-24T08:28:44.786Z,6.87
2019-02-24T08:31:13.239Z,7.60
2019-02-24T08:33:41.748Z,6.93
2019-02-24T08:36:10.158Z,7.20
2019-02-24T08:38:40.381Z,7.60
2019-02-24T08:41:08.646Z,6.90
2019-02-24T08:43:37.054Z,6.43
2019-02-24T08:46:05.507Z,7.93
2019-02-24T08:48:33.935Z,7.17
2019-02-24T08:51:02.473Z,7.20
2019-02-24T08:53:31.063Z,8.67
2019-02-24T08:55:59.503Z,7.30
2019-02-24T08:58:27.910Z,8.43
2019-02-24T09:00:56.437Z,7.27
2019-02-24T09:03:24.917Z,9.57
2019-02-24T09:05:53.397Z,9.73
2019-02-24T09:08:21.902Z,9.77
2019-02-24T09:10:50.312Z,10.57
2019-02-24T09:13:18.766Z,9.80
2019-02-24T09:15:47.202Z,8.47
2019-02-24T09:18:15.614Z,8.63
2019-02-24T09:20:44.097Z,7.37
2019-02-24T09:23:12.532Z,7.33
2019-02-24T09:25:41.441Z,8.27
2019-02-24T09:28:09.859Z,10.33
2019-02-24T09:30:38.290Z,9.57
2019-02-24T09:33:08.631Z,8.07
2019-02-24T09:35:37.054Z,7.73
2019-02-24T09:38:05.490Z,7.87
2019-02-24T09:40:33.998Z,7.70
2019-02-24T09:43:02.561Z,7.30
2019-02-24T09:45:31.169Z,8.33
2019-02-24T09:47:59.784Z,6.67
2019-02-24T09:50:28.329Z,7.43
2019-02-24T09:52:56.866Z,7.37
2019-02-24T09:55:25.396Z,7.27
2019-02-24T09:57:53.876Z,7.10
2019-02-24T10:00:22.324Z,8.07
2019-02-24T10:02:50.834Z,7.07
2019-02-24T10:05:19.251Z,8.10
2019-02-24T10:07:47.713Z,8.23
2019-02-24T10:10:16.191Z,8.60
2019-02-24T10:12:44.735Z,7.33
2019-02-24T10:15:15.942Z,7.10
2019-02-24T10:17:44.431Z,6.37
2019-02-24T10:20:14.411Z,5.83
2019-02-24T10:22:42.958Z,7.43
2019-02-24T10:25:13.062Z,8.53
2019-02-24T10:27:41.638Z,9.17
2019-02-24T10:30:14.801Z,7.83
2019-02-24T10:32:43.275Z,8.83
2019-02-24T10:35:11.733Z,9.07
2019-02-24T10:37:40.337Z,8.83
2019-02-24T10:40:18.721Z,9.37
2019-02-24T10:42:47.170Z,8.17
2019-02-24T10:45:19.339Z,8.63
2019-02-24T10:47:47.901Z,7.97
2019-02-24T10:50:17.346Z,9.93
2019-02-24T10:52:47.145Z,8.13
2019-02-24T10:55:15.657Z,9.53
2019-02-24T10:57:44.186Z,10.53
2019-02-24T11:00:14.874Z,10.60
2019-02-24T11:02:43.518Z,10.27
2019-02-24T11:05:12.279Z,9.50
2019-02-24T11:07:40.703Z,8.93
2019-02-24T11:10:09.921Z,10.00
2019-02-24T11:12:38.384Z,10.33
2019-02-24T11:15:08.707Z,8.67
2019-02-24T11:17:37.268Z,10.57
2019-02-24T11:20:16.958Z,7.40
2019-02-24T11:22:45.431Z,7.73
2019-02-24T11:25:13.912Z,8.60
2019-02-24T11:27:42.456Z,10.03
2019-02-24T11:30:15.951Z,12.33
2019-02-24T11:32:44.354Z,9.57
2019-02-24T11:35:13.415Z,8.93
2019-02-24T11:37:41.829Z,11.03
2019-02-24T11:40:12.886Z,11.83
2019-02-24T11:42:41.402Z,8.57
2019-02-24T11:45:10.164Z,9.10
2019-02-24T11:47:38.686Z,7.00
2019-02-24T11:50:10.945Z,7.97
2019-02-24T11:52:39.437Z,8.20
2019-02-24T11:55:11.018Z,7.30
2019-02-24T11:57:39.535Z,9.43
2019-02-24T12:00:11.427Z,7.73
2019-02-24T12:02:41.724Z,7.83
2019-02-24T12:05:10.347Z,6.77
2019-02-24T12:07:38.824Z,7.03
2019-02-24T12:10:11.657Z,6.17
2019-02-24T12:12:40.298Z,5.60
2019-02-24T12:15:12.799Z,5.57
2019-02-24T12:17:41.288Z,5.33
2019-02-24T12:20:11.326Z,5.43
2019-02-24T12:22:39.803Z,4.07
2019-02-24T12:25:10.397Z,6.37
2019-02-24T12:27:38.979Z,3.93
2019-02-24T12:30:10.430Z,4.53
2019-02-24T12:32:38.942Z,5.10
2019-02-24T12:35:07.455Z,4.93
2019-02-24T12:37:35.939Z,4.60
2019-02-24T12:40:07.286Z,3.90
2019-02-24T12:42:35.735Z,3.83
2019-02-24T12:45:06.185Z,5.17
2019-02-24T12:47:34.643Z,3.87
2019-02-24T12:50:04.012Z,5.53
2019-02-24T12:52:32.518Z,3.93
2019-02-24T12:55:00.936Z,4.73
2019-02-24T12:57:29.372Z,3.37
2019-02-24T12:59:57.860Z,3.90
2019-02-24T13:02:26.271Z,4.90
2019-02-24T13:04:54.728Z,5.93
2019-02-24T13:07:23.142Z,4.90
2019-02-24T13:09:51.562Z,5.10
2019-02-24T13:12:20.071Z,4.93
2019-02-24T13:14:48.495Z,4.40
2019-02-24T13:17:17.019Z,6.20
2019-02-24T13:19:45.458Z,4.77
2019-02-24T13:22:13.974Z,6.53
2019-02-24T13:24:42.451Z,5.73
2019-02-24T13:27:10.900Z,6.30
2019-02-24T13:29:39.385Z,6.13
2019-02-24T13:32:14.702Z,5.50
2019-02-24T13:34:38.014Z,4.37
2019-02-24T13:37:06.519Z,5.27
2019-02-24T13:39:34.998Z,4.47
2019-02-24T13:42:03.490Z,4.67
2019-02-24T13:44:31.898Z,4.17
2019-02-24T13:47:00.310Z,4.23
2019-02-24T13:49:28.841Z,4.07
2019-02-24T13:51:57.258Z,3.90
2019-02-24T13:54:25.678Z,4.37
2019-02-24T13:56:54.146Z,4.33
2019-02-24T13:59:22.557Z,4.03
2019-02-24T14:01:50.963Z,3.03
2019-02-24T14:04:19.463Z,2.83
2019-02-24T14:06:47.877Z,4.40
2019-02-24T14:09:16.349Z,4.13
2019-02-24T14:11:44.854Z,3.47
2019-02-24T14:14:13.258Z,4.27
2019-02-24T14:16:41.687Z,4.77
2019-02-24T14:19:10.193Z,6.33
2019-02-24T14:21:38.742Z,6.00
2019-02-24T14:24:07.226Z,4.47
2019-02-24T14:26:35.666Z,4.23
2019-02-24T14:29:04.066Z,4.67
2019-02-24T14:31:32.562Z,4.40
2019-02-24T14:34:01.002Z,5.83
2019-02-24T14:36:29.407Z,5.60
2019-02-24T14:38:57.898Z,5.57
2019-02-24T14:41:26.402Z,6.30
2019-02-24T14:43:54.810Z,4.67
2019-02-24T14:46:23.244Z,5.60
2019-02-24T14:48:51.679Z,6.83
2019-02-24T14:51:20.102Z,7.20
2019-02-24T14:53:48.575Z,9.00
2019-02-24T14:56:17.098Z,7.70
2019-02-24T14:58:45.584Z,7.87
2019-02-24T15:01:14.066Z,8.67
2019-02-24T15:03:42.574Z,11.07
2019-02-24T15:06:11.066Z,10.77
2019-02-24T15:08:39.479Z,10.70
2019-02-24T15:11:07.922Z,13.57
2019-02-24T15:13:36.402Z,12.67
2019-02-24T15:16:04.881Z,13.23
2019-02-24T15:18:33.322Z,13.70
2019-02-24T15:21:01.772Z,15.30
2019-02-24T15:23:30.313Z,11.67
2019-02-24T15:25:58.821Z,11.17
2019-02-24T15:28:27.231Z,12.97
2019-02-24T15:30:55.690Z,11.73
2019-02-24T15:33:24.211Z,12.93
2019-02-24T15:35:52.690Z,12.90
2019-02-24T15:38:21.111Z,14.33
2019-02-24T15:40:49.620Z,16.93
2019-02-24T15:43:18.033Z,16.63
2019-02-24T15:45:46.584Z,17.10
2019-02-24T15:48:15.039Z,17.00
2019-02-24T15:50:43.437Z,16.13
2019-02-24T15:53:11.983Z,16.20
2019-02-24T15:55:40.413Z,15.80
2019-02-24T15:58:09.943Z,14.77
2019-02-24T16:00:38.311Z,17.67
2019-02-24T16:03:06.819Z,12.80
2019-02-24T16:05:35.314Z,15.93
2019-02-24T16:08:03.850Z,14.60
2019-02-24T16:10:32.282Z,13.10
2019-02-24T16:13:00.788Z,14.78
2019-02-24T16:15:29.580Z,14.90
2019-02-24T16:17:58.014Z,11.17
2019-02-24T16:20:31.571Z,10.20
2019-02-24T16:23:00.288Z,12.43
2019-02-24T16:25:30.445Z,11.60
2019-02-24T16:27:58.908Z,11.55
2019-02-24T16:30:27.379Z,9.73
2019-02-24T16:32:55.819Z,10.00
2019-02-24T16:35:24.225Z,8.60
2019-02-24T16:37:52.759Z,8.53
2019-02-24T16:40:23.694Z,8.03
2019-02-24T16:42:52.113Z,8.00
2019-02-24T16:45:20.647Z,8.43
2019-02-24T16:47:49.090Z,7.70
2019-02-24T16:50:18.601Z,5.50
2019-02-24T16:52:47.086Z,8.73
2019-02-24T16:55:16.457Z,8.47
2019-02-24T16:57:44.937Z,8.20
2019-02-24T17:00:27.571Z,8.80
2019-02-24T17:02:56.055Z,11.07
2019-02-24T17:05:24.623Z,7.43
2019-02-24T17:07:53.119Z,8.33
2019-02-24T17:10:26.263Z,7.77
2019-02-24T17:12:54.671Z,9.03
2019-02-24T17:15:23.114Z,7.87
2019-02-24T17:17:51.661Z,8.17
2019-02-24T17:20:28.473Z,9.63
2019-02-24T17:22:56.874Z,9.33
2019-02-24T17:25:25.430Z,8.73
2019-02-24T17:27:53.887Z,7.50
2019-02-24T17:30:23.817Z,7.63
2019-02-24T17:32:52.638Z,8.17
2019-02-24T17:35:21.177Z,7.07
2019-02-24T17:37:49.679Z,8.53
2019-02-24T17:40:19.886Z,9.60
2019-02-24T17:42:48.410Z,8.80
2019-02-24T17:45:16.963Z,8.70
2019-02-24T17:47:45.446Z,8.93
2019-02-24T17:50:18.147Z,6.37
2019-02-24T17:52:46.625Z,8.30
2019-02-24T17:55:16.062Z,9.20
2019-02-24T17:57:44.506Z,9.37
2019-02-24T18:00:23.594Z,6.80
2019-02-24T18:02:52.041Z,9.30
2019-02-24T18:05:20.522Z,9.10
2019-02-24T18:07:48.930Z,7.80
2019-02-24T18:10:17.654Z,9.63
2019-02-24T18:12:46.138Z,8.07
2019-02-24T18:15:14.619Z,11.63
2019-02-24T18:17:43.228Z,10.17
2019-02-24T18:20:22.338Z,10.80
2019-02-24T18:22:50.816Z,10.33
2019-02-24T18:25:19.193Z,9.50
2019-02-24T18:27:47.595Z,9.07
2019-02-24T18:30:27.982Z,10.27
2019-02-24T18:32:56.413Z,9.87
2019-02-24T18:35:24.891Z,9.57
2019-02-24T18:37:53.499Z,11.23
2019-02-24T18:40:21.974Z,9.23
2019-02-24T18:42:59.421Z,9.23
2019-02-24T18:45:20.594Z,11.57
2019-02-24T18:47:49.821Z,10.27
2019-02-24T18:50:20.135Z,9.33
2019-02-24T18:52:48.678Z,10.53
2019-02-24T18:55:17.096Z,8.50
2019-02-24T18:57:45.496Z,11.87
2019-02-24T19:00:22.050Z,13.23
2019-02-24T19:02:50.536Z,9.90
2019-02-24T19:05:19.058Z,14.93
2019-02-24T19:07:47.622Z,11.40
2019-02-24T19:10:17.791Z,10.87
2019-02-24T19:12:46.375Z,11.17
2019-02-24T19:15:19.689Z,12.67
2019-02-24T19:17:48.276Z,11.30
2019-02-24T19:20:21.771Z,11.43
2019-02-24T19:22:51.763Z,9.57
2019-02-24T19:25:20.274Z,11.30
2019-02-24T19:27:48.753Z,12.80
2019-02-24T19:30:21.734Z,13.90
2019-02-24T19:32:50.279Z,13.00
2019-02-24T19:35:19.331Z,15.93
2019-02-24T19:37:47.792Z,14.00
2019-02-24T19:40:17.640Z,14.17
2019-02-24T19:42:46.042Z,12.63
2019-02-24T19:45:18.927Z,12.50
2019-02-24T19:47:47.354Z,12.47
2019-02-24T19:50:17.729Z,12.67
2019-02-24T19:52:46.145Z,14.93
2019-02-24T19:55:15.518Z,11.60
2019-02-24T19:57:43.931Z,12.50
2019-02-24T20:00:18.110Z,12.50
2019-02-24T20:02:46.622Z,13.10
2019-02-24T20:05:15.035Z,12.83
2019-02-24T20:07:43.514Z,14.13
2019-02-24T20:10:20.411Z,16.07
2019-02-24T20:12:48.823Z,14.43
2019-02-24T20:15:17.370Z,17.80
2019-02-24T20:17:45.807Z,15.83
2019-02-24T20:20:15.773Z,14.83
2019-02-24T20:22:44.263Z,15.20
2019-02-24T20:25:15.945Z,15.27
2019-02-24T20:27:44.382Z,16.47
2019-02-24T20:30:21.168Z,14.70
2019-02-24T20:32:49.583Z,13.80
2019-02-24T20:35:17.992Z,15.93
2019-02-24T20:37:46.494Z,14.47
2019-02-24T20:40:14.966Z,14.87
2019-02-24T20:42:43.443Z,15.07
2019-02-24T20:45:17.289Z,16.90
2019-02-24T20:47:46.725Z,15.17
2019-02-24T20:50:17.290Z,15.87
2019-02-24T20:52:45.798Z,15.73
2019-02-24T20:55:14.243Z,13.07
2019-02-24T20:57:42.663Z,12.60
2019-02-24T21:00:22.868Z,15.63
2019-02-24T21:02:51.334Z,10.90
2019-02-24T21:05:19.848Z,13.27
2019-02-24T21:07:48.290Z,16.40
2019-02-24T21:10:16.698Z,11.83
2019-02-24T21:12:45.179Z,13.70
2019-02-24T21:15:15.454Z,12.43
2019-02-24T21:17:43.943Z,13.23
2019-02-24T21:20:17.852Z,12.10
2019-02-24T21:22:46.366Z,10.03
2019-02-24T21:25:14.853Z,10.60
2019-02-24T21:27:43.335Z,10.70
2019-02-24T21:30:18.304Z,9.30
2019-02-24T21:32:46.778Z,9.07
2019-02-24T21:35:17.159Z,12.20
2019-02-24T21:37:45.302Z,11.90
2019-02-24T21:40:16.287Z,14.90
2019-02-24T21:42:44.698Z,11.40
2019-02-24T21:45:21.909Z,11.77
2019-02-24T21:47:50.343Z,13.83
2019-02-24T21:50:18.757Z,12.00
2019-02-24T21:52:47.226Z,12.07
2019-02-24T21:55:15.684Z,10.90
2019-02-24T21:57:44.250Z,12.37
2019-02-24T22:00:24.035Z,12.20
2019-02-24T22:02:52.482Z,13.93
2019-02-24T22:05:20.957Z,13.17
2019-02-24T22:07:49.476Z,13.87
2019-02-24T22:10:17.891Z,16.33
2019-02-24T22:12:46.399Z,15.70
2019-02-24T22:15:19.861Z,15.90
2019-02-24T22:17:48.373Z,14.40
2019-02-24T22:20:16.854Z,14.33
2019-02-24T22:22:45.454Z,14.03
2019-02-24T22:25:16.690Z,16.50
2019-02-24T22:27:45.108Z,14.30
2019-02-24T22:30:21.597Z,16.90
2019-02-24T22:32:50.156Z,17.20
2019-02-24T22:35:18.647Z,15.60
2019-02-24T22:37:47.220Z,21.60
2019-02-24T22:40:16.972Z,17.70
2019-02-24T22:42:46.013Z,22.03
2019-02-24T22:45:17.206Z,18.33
2019-02-24T22:47:45.779Z,22.00
2019-02-24T22:50:14.622Z,21.67
2019-02-24T22:52:43.218Z,20.37
2019-02-24T22:55:13.503Z,20.80
2019-02-24T22:57:41.920Z,21.67
2019-02-24T23:00:29.841Z,18.57
2019-02-24T23:02:58.442Z,19.73
2019-02-24T23:05:26.871Z,18.60
2019-02-24T23:07:55.318Z,19.03
2019-02-24T23:10:23.798Z,17.23
2019-02-24T23:12:52.234Z,21.90
2019-02-24T23:15:20.667Z,21.20
2019-02-24T23:17:49.081Z,20.77
2019-02-24T23:20:17.569Z,18.37
2019-02-24T23:22:46.007Z,18.70
2019-02-24T23:25:14.425Z,16.93
2019-02-24T23:27:42.904Z,17.40
2019-02-24T23:30:11.334Z,17.53
2019-02-24T23:32:39.775Z,16.87
2019-02-24T23:35:08.430Z,18.03
2019-02-24T23:37:36.931Z,16.97
2019-02-24T23:40:07.988Z,16.87
2019-02-24T23:42:36.462Z,16.00
2019-02-24T23:45:10.576Z,15.40
2019-02-24T23:47:38.126Z,14.33
2019-02-24T23:50:08.570Z,17.83
2019-02-24T23:52:37.015Z,16.07
2019-02-24T23:55:06.355Z,11.80
2019-02-24T23:57:34.773Z,16.63
